Glasston, North Dakota
Current Conditions -  °F | °C
As of 6:15 PM on Thursday 27 Nov 2014 (Local Time) from K2C8 Reporting Station
Clear Clear  
Wind Chill: -9°   Ceiling: Unl
Heat Index:   Visibility: 10mi
Dew Point:   Wind: 13mph
Humidity: 72%   Direction: 170°S
Pressure: 30.23"   Gusts: NA
Location:  48.71°N, 97.45°W
Report Text: K2C8 280015Z AUTO 17011KT 10SM CLR M14/M18 A3023 RMK AO2
Loading
Personal Weather Stations






























Interactive Weather Map New forecast layout! Learn more

10-Day Weather Forecast

Advertisements
Track Severe Weather on mobile